Pledger, Texas
Current Conditions -  °F | °C
As of 6:55 AM on Monday 22 Dec 2014 (Local Time) from KARM Reporting Station
Haze Haze  
Wind Chill: 15°   Ceiling: 200
Heat Index: 15°   Visibility: 3mi
Dew Point: 14°   Wind: 3mph
Humidity: 98%   Direction: 190°S
Pressure: 29.77"   Gusts: NA
Location:  29.18°N, 95.91°W
Report Text: KARM 221255Z AUTO 19003KT 3SM BR BKN002 OVC005 15/14 A2977 RMK AO2 T01460143
Loading
Personal Weather Stations






























Interactive Weather Map New forecast layout! Learn more

10-Day Weather Forecast

Advertisements
Track Severe Weather on mobile